Strona główna
METAR-TAF:

METAR-TAF

Lotnisko :

Danbury Municipal Airport

Danbury, Connecticut, Stany Zjednoczone

Szerokość geograficzna: 41-22-18N, Długość geograficzna: 073-29-04W, wysokość: 139 m

Aktualna obserwacja pogody

Raport powstał 15 minut temu, godzina 10:53 UTC
Wiatr 3 kt od południowy zachód
Temperatura 1°C
Wilgotność 100%
Ciśnienie 1007 hPa
Widzialność: 16.1 km
Zachmurzenie całkowite na wysokości 4500 ft
słaby deszcz

METAR: KDXR 191053Z AUTO 22003KT 10SM -RA OVC045 01/01 A2973 RMK AO2 RAB15 SLP070 P0001 T00110006

czas: 06:08 (11:08 UTC)


TAF: brakujący

Obserwacja i prognoza pogody dla ponad 4000 lotnisk (raport METAR i TAF).

Dostępne stacje oznaczono żółtymi i czerwonymi punktami na mapie.

Najedź kursorem aby zobaczyć nazwę stacji.

Kliknij aby zobaczyć obserwacje i prognozy pogody.

Aby zmienić mapę: kliknij na zielony przycisk z czarnym krzyżykiem, aby powiększyć; na zielony przycisk z myślnikiem, aby pomniejszyć; na zielone strzałki, aby przejść do map sąsiednich.


METAR-TAF: